sensor_id;sensor_type;location;lat;lon;timestamp;pressure;altitude;pressure_sealevel;temperature;humidity
11038;BME280;5572;49.540;11.932;2023-02-28T00:00:23;98329.19;;;-3.71;100.00
11038;BME280;5572;49.540;11.932;2023-02-28T00:02:50;98304.69;;;-3.47;100.00
11038;BME280;5572;49.540;11.932;2023-02-28T00:05:20;98295.41;;;-3.51;100.00
11038;BME280;5572;49.540;11.932;2023-02-28T00:07:48;98284.50;;;-3.56;100.00
11038;BME280;5572;49.540;11.932;2023-02-28T00:10:17;98281.19;;;-3.58;100.00
11038;BME280;5572;49.540;11.932;2023-02-28T00:12:46;98259.56;;;-3.54;100.00
11038;BME280;5572;49.540;11.932;2023-02-28T00:15:12;98229.41;;;-3.28;100.00
11038;BME280;5572;49.540;11.932;2023-02-28T00:17:39;98222.66;;;-3.30;100.00
11038;BME280;5572;49.540;11.932;2023-02-28T00:20:07;98208.28;;;-3.36;100.00
11038;BME280;5572;49.540;11.932;2023-02-28T00:22:37;98208.06;;;-3.50;100.00
11038;BME280;5572;49.540;11.932;2023-02-28T00:25:05;98180.31;;;-3.38;100.00
11038;BME280;5572;49.540;11.932;2023-02-28T00:27:33;98189.88;;;-3.61;100.00
11038;BME280;5572;49.540;11.932;2023-02-28T00:29:59;98164.63;;;-3.55;100.00
11038;BME280;5572;49.540;11.932;2023-02-28T00:32:26;98140.03;;;-3.24;100.00
11038;BME280;5572;49.540;11.932;2023-02-28T00:34:53;98129.97;;;-3.29;100.00
11038;BME280;5572;49.540;11.932;2023-02-28T00:37:19;98115.59;;;-3.26;100.00
11038;BME280;5572;49.540;11.932;2023-02-28T00:39:47;98106.50;;;-3.32;100.00
11038;BME280;5572;49.540;11.932;2023-02-28T00:42:14;98082.38;;;-3.05;100.00
11038;BME280;5572;49.540;11.932;2023-02-28T00:44:40;98074.59;;;-3.06;100.00
11038;BME280;5572;49.540;11.932;2023-02-28T00:47:07;98055.72;;;-2.95;100.00
11038;BME280;5572;49.540;11.932;2023-02-28T00:49:33;98044.50;;;-2.97;100.00
11038;BME280;5572;49.540;11.932;2023-02-28T00:52:00;98051.31;;;-3.11;100.00
11038;BME280;5572;49.540;11.932;2023-02-28T00:54:27;98026.97;;;-2.90;100.00
11038;BME280;5572;49.540;11.932;2023-02-28T00:56:55;98021.84;;;-2.92;100.00
11038;BME280;5572;49.540;11.932;2023-02-28T00:59:21;98005.81;;;-2.98;100.00
11038;BME280;5572;49.540;11.932;2023-02-28T01:01:48;97997.88;;;-2.90;100.00
11038;BME280;5572;49.540;11.932;2023-02-28T01:04:15;97983.44;;;-2.80;100.00
11038;BME280;5572;49.540;11.932;2023-02-28T01:06:42;97971.53;;;-2.76;100.00
11038;BME280;5572;49.540;11.932;2023-02-28T01:09:09;97955.78;;;-2.69;100.00
11038;BME280;5572;49.540;11.932;2023-02-28T01:11:35;97950.19;;;-2.74;100.00
11038;BME280;5572;49.540;11.932;2023-02-28T01:14:03;97946.75;;;-2.75;100.00
11038;BME280;5572;49.540;11.932;2023-02-28T01:16:30;97934.19;;;-2.81;100.00
11038;BME280;5572;49.540;11.932;2023-02-28T01:18:57;97933.50;;;-2.75;100.00
11038;BME280;5572;49.540;11.932;2023-02-28T01:21:24;97914.66;;;-2.80;100.00
11038;BME280;5572;49.540;11.932;2023-02-28T01:23:50;97896.16;;;-2.80;100.00
11038;BME280;5572;49.540;11.932;2023-02-28T01:26:19;97880.59;;;-2.75;100.00
11038;BME280;5572;49.540;11.932;2023-02-28T01:28:46;97877.47;;;-2.78;100.00
11038;BME280;5572;49.540;11.932;2023-02-28T01:31:14;97873.69;;;-2.84;100.00
11038;BME280;5572;49.540;11.932;2023-02-28T01:33:41;97860.31;;;-2.82;100.00
11038;BME280;5572;49.540;11.932;2023-02-28T01:36:10;97857.19;;;-2.86;100.00
11038;BME280;5572;49.540;11.932;2023-02-28T01:38:37;97854.06;;;-2.89;100.00
11038;BME280;5572;49.540;11.932;2023-02-28T01:41:05;97843.72;;;-2.99;100.00
11038;BME280;5572;49.540;11.932;2023-02-28T01:43:53;97839.59;;;-3.01;100.00
11038;BME280;5572;49.540;11.932;2023-02-28T01:46:21;97832.28;;;-2.99;100.00
11038;BME280;5572;49.540;11.932;2023-02-28T01:48:51;97822.56;;;-2.99;100.00
11038;BME280;5572;49.540;11.932;2023-02-28T01:51:20;97811.19;;;-3.07;100.00
11038;BME280;5572;49.540;11.932;2023-02-28T01:53:52;97807.44;;;-3.13;100.00
11038;BME280;5572;49.540;11.932;2023-02-28T01:56:22;97798.50;;;-3.12;100.00
11038;BME280;5572;49.540;11.932;2023-02-28T01:58:51;97780.84;;;-3.11;100.00
11038;BME280;5572;49.540;11.932;2023-02-28T02:01:18;97787.66;;;-3.17;100.00
11038;BME280;5572;49.540;11.932;2023-02-28T02:03:50;97779.88;;;-3.18;100.00
11038;BME280;5572;49.540;11.932;2023-02-28T02:06:21;97765.25;;;-3.06;100.00
11038;BME280;5572;49.540;11.932;2023-02-28T02:08:48;97754.69;;;-3.06;100.00
11038;BME280;5572;49.540;11.932;2023-02-28T02:11:17;97755.94;;;-3.17;100.00
11038;BME280;5572;49.540;11.932;2023-02-28T02:13:57;97750.28;;;-3.14;100.00
11038;BME280;5572;49.540;11.932;2023-02-28T02:16:36;97740.75;;;-3.23;100.00
11038;BME280;5572;49.540;11.932;2023-02-28T02:19:19;97728.66;;;-3.17;100.00
11038;BME280;5572;49.540;11.932;2023-02-28T02:22:12;97724.44;;;-3.26;100.00
11038;BME280;5572;49.540;11.932;2023-02-28T02:24:58;97711.41;;;-3.28;100.00
11038;BME280;5572;49.540;11.932;2023-02-28T02:27:44;97689.59;;;-3.30;100.00
11038;BME280;5572;49.540;11.932;2023-02-28T02:30:43;97678.03;;;-3.29;100.00
11038;BME280;5572;49.540;11.932;2023-02-28T02:33:26;97676.38;;;-3.30;100.00
11038;BME280;5572;49.540;11.932;2023-02-28T02:35:59;97658.66;;;-3.21;100.00
11038;BME280;5572;49.540;11.932;2023-02-28T02:38:34;97661.84;;;-3.26;100.00
11038;BME280;5572;49.540;11.932;2023-02-28T02:41:08;97644.06;;;-3.17;100.00
11038;BME280;5572;49.540;11.932;2023-02-28T02:43:41;97633.97;;;-3.14;100.00
11038;BME280;5572;49.540;11.932;2023-02-28T02:46:15;97619.75;;;-3.13;100.00
11038;BME280;5572;49.540;11.932;2023-02-28T02:48:44;97623.38;;;-3.14;100.00
11038;BME280;5572;49.540;11.932;2023-02-28T02:51:15;97622.22;;;-3.11;100.00
11038;BME280;5572;49.540;11.932;2023-02-28T02:53:46;97616.84;;;-3.18;100.00
11038;BME280;5572;49.540;11.932;2023-02-28T02:56:18;97616.91;;;-3.26;100.00
11038;BME280;5572;49.540;11.932;2023-02-28T02:58:48;97606.78;;;-3.22;100.00
11038;BME280;5572;49.540;11.932;2023-02-28T03:01:18;97605.53;;;-3.12;100.00
11038;BME280;5572;49.540;11.932;2023-02-28T03:03:54;97601.31;;;-3.21;100.00
11038;BME280;5572;49.540;11.932;2023-02-28T03:06:23;97592.50;;;-3.13;100.00
11038;BME280;5572;49.540;11.932;2023-02-28T03:08:50;97589.31;;;-3.09;100.00
11038;BME280;5572;49.540;11.932;2023-02-28T03:11:16;97579.38;;;-3.21;100.00
11038;BME280;5572;49.540;11.932;2023-02-28T03:13:54;97589.00;;;-3.28;100.00
11038;BME280;5572;49.540;11.932;2023-02-28T03:16:36;97572.59;;;-3.24;100.00
11038;BME280;5572;49.540;11.932;2023-02-28T03:19:26;97569.34;;;-3.26;100.00
11038;BME280;5572;49.540;11.932;2023-02-28T03:22:09;97545.56;;;-3.26;100.00
11038;BME280;5572;49.540;11.932;2023-02-28T03:24:44;97539.34;;;-3.18;100.00
11038;BME280;5572;49.540;11.932;2023-02-28T03:27:19;97521.22;;;-3.07;100.00
11038;BME280;5572;49.540;11.932;2023-02-28T03:29:50;97514.13;;;-3.06;100.00
11038;BME280;5572;49.540;11.932;2023-02-28T03:32:23;97511.22;;;-2.97;100.00
11038;BME280;5572;49.540;11.932;2023-02-28T03:34:56;97504.53;;;-2.93;100.00
11038;BME280;5572;49.540;11.932;2023-02-28T03:37:31;97496.91;;;-3.02;100.00
11038;BME280;5572;49.540;11.932;2023-02-28T03:40:03;97494.34;;;-2.96;100.00
11038;BME280;5572;49.540;11.932;2023-02-28T03:42:35;97500.72;;;-3.05;100.00
11038;BME280;5572;49.540;11.932;2023-02-28T03:45:05;97485.78;;;-2.98;100.00
11038;BME280;5572;49.540;11.932;2023-02-28T03:47:39;97490.16;;;-3.05;100.00
11038;BME280;5572;49.540;11.932;2023-02-28T03:50:11;97472.81;;;-2.93;100.00
11038;BME280;5572;49.540;11.932;2023-02-28T03:52:45;97483.69;;;-3.02;100.00
11038;BME280;5572;49.540;11.932;2023-02-28T03:55:15;97471.09;;;-3.00;100.00
11038;BME280;5572;49.540;11.932;2023-02-28T03:57:49;97479.94;;;-3.08;100.00
11038;BME280;5572;49.540;11.932;2023-02-28T04:00:27;97466.72;;;-2.93;100.00
11038;BME280;5572;49.540;11.932;2023-02-28T04:02:56;97468.81;;;-3.03;100.00
11038;BME280;5572;49.540;11.932;2023-02-28T04:05:23;97460.97;;;-2.97;100.00
11038;BME280;5572;49.540;11.932;2023-02-28T04:07:53;97457.41;;;-3.04;100.00
11038;BME280;5572;49.540;11.932;2023-02-28T04:10:21;97458.13;;;-2.95;100.00
11038;BME280;5572;49.540;11.932;2023-02-28T04:12:48;97445.81;;;-2.88;100.00
11038;BME280;5572;49.540;11.932;2023-02-28T04:15:16;97464.97;;;-3.01;100.00
11038;BME280;5572;49.540;11.932;2023-02-28T04:17:50;97458.31;;;-2.97;100.00
11038;BME280;5572;49.540;11.932;2023-02-28T04:20:17;97459.03;;;-3.03;100.00
11038;BME280;5572;49.540;11.932;2023-02-28T04:22:44;97455.25;;;-3.15;100.00
11038;BME280;5572;49.540;11.932;2023-02-28T04:25:13;97448.75;;;-3.12;100.00
11038;BME280;5572;49.540;11.932;2023-02-28T04:27:42;97446.38;;;-3.22;100.00
11038;BME280;5572;49.540;11.932;2023-02-28T04:30:11;97439.75;;;-3.32;100.00
11038;BME280;5572;49.540;11.932;2023-02-28T04:32:38;97434.16;;;-3.23;100.00
11038;BME280;5572;49.540;11.932;2023-02-28T04:35:06;97423.06;;;-3.33;100.00
11038;BME280;5572;49.540;11.932;2023-02-28T04:37:34;97413.22;;;-3.24;100.00
11038;BME280;5572;49.540;11.932;2023-02-28T04:40:03;97411.78;;;-3.27;100.00
11038;BME280;5572;49.540;11.932;2023-02-28T04:42:32;97404.75;;;-3.34;100.00
11038;BME280;5572;49.540;11.932;2023-02-28T04:45:01;97401.66;;;-3.38;100.00
11038;BME280;5572;49.540;11.932;2023-02-28T04:47:28;97391.91;;;-3.37;100.00
11038;BME280;5572;49.540;11.932;2023-02-28T04:49:56;97387.34;;;-3.43;100.00
11038;BME280;5572;49.540;11.932;2023-02-28T04:52:25;97376.44;;;-3.40;100.00
11038;BME280;5572;49.540;11.932;2023-02-28T04:54:54;97375.03;;;-3.36;100.00
11038;BME280;5572;49.540;11.932;2023-02-28T04:57:21;97369.66;;;-3.28;100.00
11038;BME280;5572;49.540;11.932;2023-02-28T04:59:50;97363.34;;;-3.13;100.00
11038;BME280;5572;49.540;11.932;2023-02-28T05:02:17;97364.19;;;-3.12;100.00
11038;BME280;5572;49.540;11.932;2023-02-28T05:04:47;97365.47;;;-3.23;100.00
11038;BME280;5572;49.540;11.932;2023-02-28T05:07:14;97364.38;;;-3.28;100.00
11038;BME280;5572;49.540;11.932;2023-02-28T05:09:42;97363.22;;;-3.40;100.00
11038;BME280;5572;49.540;11.932;2023-02-28T05:12:09;97363.47;;;-3.35;100.00
11038;BME280;5572;49.540;11.932;2023-02-28T05:14:37;97361.38;;;-3.40;100.00
11038;BME280;5572;49.540;11.932;2023-02-28T05:17:06;97354.28;;;-3.25;100.00
11038;BME280;5572;49.540;11.932;2023-02-28T05:19:33;97351.88;;;-3.20;100.00
11038;BME280;5572;49.540;11.932;2023-02-28T05:22:01;97344.47;;;-3.10;100.00
11038;BME280;5572;49.540;11.932;2023-02-28T05:24:29;97346.88;;;-3.15;100.00
11038;BME280;5572;49.540;11.932;2023-02-28T05:26:57;97336.56;;;-3.10;100.00
11038;BME280;5572;49.540;11.932;2023-02-28T05:29:24;97344.41;;;-3.16;100.00
11038;BME280;5572;49.540;11.932;2023-02-28T05:31:52;97343.97;;;-3.20;100.00
11038;BME280;5572;49.540;11.932;2023-02-28T05:34:21;97337.19;;;-3.08;100.00
11038;BME280;5572;49.540;11.932;2023-02-28T05:36:48;97341.59;;;-3.15;100.00
11038;BME280;5572;49.540;11.932;2023-02-28T05:39:16;97331.91;;;-3.08;100.00
11038;BME280;5572;49.540;11.932;2023-02-28T05:41:43;97341.75;;;-3.16;100.00
11038;BME280;5572;49.540;11.932;2023-02-28T05:44:11;97340.09;;;-3.03;100.00
11038;BME280;5572;49.540;11.932;2023-02-28T05:46:37;97348.75;;;-3.09;100.00
11038;BME280;5572;49.540;11.932;2023-02-28T05:49:04;97333.78;;;-3.02;100.00
11038;BME280;5572;49.540;11.932;2023-02-28T05:51:33;97342.84;;;-3.11;100.00
11038;BME280;5572;49.540;11.932;2023-02-28T05:54:01;97342.84;;;-3.11;100.00
11038;BME280;5572;49.540;11.932;2023-02-28T05:56:29;97335.78;;;-3.04;100.00
11038;BME280;5572;49.540;11.932;2023-02-28T05:58:57;97341.28;;;-3.05;100.00
11038;BME280;5572;49.540;11.932;2023-02-28T06:01:32;97348.56;;;-3.07;100.00
11038;BME280;5572;49.540;11.932;2023-02-28T06:04:01;97358.44;;;-3.16;100.00
11038;BME280;5572;49.540;11.932;2023-02-28T06:06:28;97356.06;;;-3.11;100.00
11038;BME280;5572;49.540;11.932;2023-02-28T06:08:58;97349.53;;;-2.94;100.00
11038;BME280;5572;49.540;11.932;2023-02-28T06:11:25;97350.94;;;-2.98;100.00
11038;BME280;5572;49.540;11.932;2023-02-28T06:13:54;97355.34;;;-3.05;100.00
11038;BME280;5572;49.540;11.932;2023-02-28T06:16:22;97355.34;;;-3.05;100.00
11038;BME280;5572;49.540;11.932;2023-02-28T06:18:50;97361.97;;;-3.09;100.00
11038;BME280;5572;49.540;11.932;2023-02-28T06:21:18;97359.88;;;-2.99;100.00
11038;BME280;5572;49.540;11.932;2023-02-28T06:23:46;97360.66;;;-2.98;100.00
11038;BME280;5572;49.540;11.932;2023-02-28T06:26:16;97362.50;;;-2.99;100.00
11038;BME280;5572;49.540;11.932;2023-02-28T06:28:43;97361.28;;;-2.82;100.00
11038;BME280;5572;49.540;11.932;2023-02-28T06:31:12;97365.47;;;-2.87;100.00
11038;BME280;5572;49.540;11.932;2023-02-28T06:33:41;97373.41;;;-2.87;100.00
11038;BME280;5572;49.540;11.932;2023-02-28T06:36:10;97375.25;;;-2.88;100.00
11038;BME280;5572;49.540;11.932;2023-02-28T06:38:38;97379.66;;;-2.95;100.00
11038;BME280;5572;49.540;11.932;2023-02-28T06:41:05;97375.28;;;-3.02;100.00
11038;BME280;5572;49.540;11.932;2023-02-28T06:43:35;97380.09;;;-2.91;100.00
11038;BME280;5572;49.540;11.932;2023-02-28T06:46:06;97382.75;;;-2.91;100.00
11038;BME280;5572;49.540;11.932;2023-02-28T06:48:34;97377.84;;;-2.73;100.00
11038;BME280;5572;49.540;11.932;2023-02-28T06:51:04;97377.94;;;-2.67;100.00
11038;BME280;5572;49.540;11.932;2023-02-28T06:53:32;97383.31;;;-2.54;100.00
11038;BME280;5572;49.540;11.932;2023-02-28T06:56:03;97386.31;;;-2.43;100.00
11038;BME280;5572;49.540;11.932;2023-02-28T06:58:30;97386.38;;;-2.36;100.00
11038;BME280;5572;49.540;11.932;2023-02-28T07:00:58;97382.84;;;-2.43;100.00
11038;BME280;5572;49.540;11.932;2023-02-28T07:03:25;97385.84;;;-2.04;100.00
11038;BME280;5572;49.540;11.932;2023-02-28T07:05:51;97367.75;;;-1.40;100.00
11038;BME280;5572;49.540;11.932;2023-02-28T07:08:18;97370.94;;;-0.70;100.00
11038;BME280;5572;49.540;11.932;2023-02-28T07:10:45;97421.50;;;-0.85;100.00
11038;BME280;5572;49.540;11.932;2023-02-28T07:13:12;97415.09;;;-0.56;100.00
11038;BME280;5572;49.540;11.932;2023-02-28T07:15:38;97436.28;;;-0.63;100.00
11038;BME280;5572;49.540;11.932;2023-02-28T07:18:06;97434.84;;;0.20;100.00
11038;BME280;5572;49.540;11.932;2023-02-28T07:20:32;97485.34;;;-0.92;100.00
11038;BME280;5572;49.540;11.932;2023-02-28T07:22:59;97485.81;;;-0.83;100.00
11038;BME280;5572;49.540;11.932;2023-02-28T07:25:27;97487.75;;;-0.04;100.00
11038;BME280;5572;49.540;11.932;2023-02-28T07:27:54;97494.72;;;0.23;100.00
11038;BME280;5572;49.540;11.932;2023-02-28T07:30:21;97470.81;;;2.32;100.00
11038;BME280;5572;49.540;11.932;2023-02-28T07:32:48;97584.63;;;0.00;100.00
11038;BME280;5572;49.540;11.932;2023-02-28T07:35:16;97557.97;;;1.24;100.00
11038;BME280;5572;49.540;11.932;2023-02-28T07:37:44;97569.19;;;1.46;100.00
11038;BME280;5572;49.540;11.932;2023-02-28T07:40:13;97600.16;;;0.95;100.00
11038;BME280;5572;49.540;11.932;2023-02-28T07:42:40;97598.13;;;1.23;100.00
11038;BME280;5572;49.540;11.932;2023-02-28T07:45:08;97633.13;;;1.07;100.00
11038;BME280;5572;49.540;11.932;2023-02-28T07:47:36;97621.84;;;2.70;100.00
11038;BME280;5572;49.540;11.932;2023-02-28T07:50:04;97664.69;;;1.68;100.00
11038;BME280;5572;49.540;11.932;2023-02-28T07:52:32;97651.03;;;3.51;100.00
11038;BME280;5572;49.540;11.932;2023-02-28T07:54:59;97631.53;;;5.16;100.00
11038;BME280;5572;49.540;11.932;2023-02-28T07:57:25;97758.06;;;3.62;100.00
11038;BME280;5572;49.540;11.932;2023-02-28T07:59:52;97751.31;;;2.92;100.00
11038;BME280;5572;49.540;11.932;2023-02-28T08:02:18;97782.63;;;3.46;100.00
11038;BME280;5572;49.540;11.932;2023-02-28T08:04:45;97858.97;;;1.63;100.00
11038;BME280;5572;49.540;11.932;2023-02-28T08:07:13;97890.41;;;0.87;100.00
11038;BME280;5572;49.540;11.932;2023-02-28T08:09:42;97939.22;;;0.18;100.00
11038;BME280;5572;49.540;11.932;2023-02-28T08:12:09;97949.97;;;0.31;100.00
11038;BME280;5572;49.540;11.932;2023-02-28T08:14:36;97961.13;;;0.69;100.00
11038;BME280;5572;49.540;11.932;2023-02-28T08:17:03;97988.19;;;0.30;100.00
11038;BME280;5572;49.540;11.932;2023-02-28T08:19:30;98003.22;;;0.38;100.00
11038;BME280;5572;49.540;11.932;2023-02-28T08:21:57;98001.47;;;0.72;100.00
11038;BME280;5572;49.540;11.932;2023-02-28T08:24:24;98019.66;;;0.75;100.00
11038;BME280;5572;49.540;11.932;2023-02-28T08:26:52;98019.09;;;1.07;100.00
11038;BME280;5572;49.540;11.932;2023-02-28T08:29:18;98038.22;;;0.62;100.00
11038;BME280;5572;49.540;11.932;2023-02-28T08:31:45;98042.56;;;0.97;100.00
11038;BME280;5572;49.540;11.932;2023-02-28T08:34:13;98050.81;;;1.02;100.00
11038;BME280;5572;49.540;11.932;2023-02-28T08:36:41;98092.34;;;0.55;100.00
11038;BME280;5572;49.540;11.932;2023-02-28T08:39:08;98110.66;;;0.64;100.00
11038;BME280;5572;49.540;11.932;2023-02-28T08:41:34;98113.94;;;0.66;100.00
11038;BME280;5572;49.540;11.932;2023-02-28T08:44:03;98135.22;;;0.66;100.00
11038;BME280;5572;49.540;11.932;2023-02-28T08:46:30;98145.81;;;0.81;100.00
11038;BME280;5572;49.540;11.932;2023-02-28T08:48:57;98113.88;;;1.56;100.00
11038;BME280;5572;49.540;11.932;2023-02-28T08:51:27;98102.28;;;3.73;100.00
11038;BME280;5572;49.540;11.932;2023-02-28T08:53:55;98157.38;;;1.63;100.00
11038;BME280;5572;49.540;11.932;2023-02-28T08:56:22;98175.66;;;0.97;100.00
11038;BME280;5572;49.540;11.932;2023-02-28T08:58:49;98215.13;;;0.93;100.00
11038;BME280;5572;49.540;11.932;2023-02-28T09:01:20;98195.56;;;0.80;100.00
11038;BME280;5572;49.540;11.932;2023-02-28T09:03:48;98197.00;;;1.24;100.00
11038;BME280;5572;49.540;11.932;2023-02-28T09:06:16;98232.25;;;0.84;100.00
11038;BME280;5572;49.540;11.932;2023-02-28T09:08:43;98241.50;;;1.30;100.00
11038;BME280;5572;49.540;11.932;2023-02-28T09:11:11;98250.31;;;1.10;100.00
11038;BME280;5572;49.540;11.932;2023-02-28T09:13:38;98259.13;;;1.31;100.00
11038;BME280;5572;49.540;11.932;2023-02-28T09:16:07;98263.31;;;1.61;100.00
11038;BME280;5572;49.540;11.932;2023-02-28T09:18:36;98240.06;;;2.37;100.00
11038;BME280;5572;49.540;11.932;2023-02-28T09:21:04;98288.88;;;1.76;100.00
11038;BME280;5572;49.540;11.932;2023-02-28T09:23:30;98333.38;;;1.20;100.00
11038;BME280;5572;49.540;11.932;2023-02-28T09:25:57;98335.44;;;1.39;100.00
11038;BME280;5572;49.540;11.932;2023-02-28T09:28:24;98340.03;;;1.30;100.00
11038;BME280;5572;49.540;11.932;2023-02-28T09:30:53;98372.16;;;0.93;100.00
11038;BME280;5572;49.540;11.932;2023-02-28T09:33:21;98348.78;;;1.80;100.00
11038;BME280;5572;49.540;11.932;2023-02-28T09:35:50;98365.91;;;1.51;100.00
11038;BME280;5572;49.540;11.932;2023-02-28T09:38:17;98392.41;;;1.59;100.00
11038;BME280;5572;49.540;11.932;2023-02-28T09:40:49;98377.22;;;1.73;100.00
11038;BME280;5572;49.540;11.932;2023-02-28T09:43:18;98361.94;;;2.30;100.00
11038;BME280;5572;49.540;11.932;2023-02-28T09:45:48;98400.31;;;1.87;100.00
11038;BME280;5572;49.540;11.932;2023-02-28T09:48:21;98445.41;;;2.03;100.00
11038;BME280;5572;49.540;11.932;2023-02-28T09:50:52;98438.19;;;1.83;100.00
11038;BME280;5572;49.540;11.932;2023-02-28T09:53:27;98430.63;;;1.66;100.00
11038;BME280;5572;49.540;11.932;2023-02-28T09:56:01;98471.94;;;2.32;100.00
11038;BME280;5572;49.540;11.932;2023-02-28T09:58:32;98438.00;;;2.26;100.00
11038;BME280;5572;49.540;11.932;2023-02-28T10:01:05;98491.13;;;1.51;100.00
11038;BME280;5572;49.540;11.932;2023-02-28T10:03:36;98483.25;;;1.78;100.00
11038;BME280;5572;49.540;11.932;2023-02-28T10:06:12;98498.16;;;1.72;100.00
11038;BME280;5572;49.540;11.932;2023-02-28T10:08:45;98458.78;;;2.79;100.00
11038;BME280;5572;49.540;11.932;2023-02-28T10:11:17;98531.91;;;2.01;100.00
11038;BME280;5572;49.540;11.932;2023-02-28T10:13:51;98516.84;;;2.98;100.00
11038;BME280;5572;49.540;11.932;2023-02-28T10:16:25;98511.38;;;2.37;100.00
11038;BME280;5572;49.540;11.932;2023-02-28T10:18:57;98557.91;;;2.97;100.00
11038;BME280;5572;49.540;11.932;2023-02-28T10:21:29;98513.16;;;3.26;100.00
11038;BME280;5572;49.540;11.932;2023-02-28T10:24:04;98586.63;;;2.11;100.00
11038;BME280;5572;49.540;11.932;2023-02-28T10:26:37;98527.47;;;3.19;100.00
11038;BME280;5572;49.540;11.932;2023-02-28T10:29:03;98586.50;;;3.24;100.00
11038;BME280;5572;49.540;11.932;2023-02-28T10:31:30;98534.19;;;2.81;100.00
11038;BME280;5572;49.540;11.932;2023-02-28T10:33:57;98584.44;;;3.26;100.00
11038;BME280;5572;49.540;11.932;2023-02-28T10:36:23;98584.03;;;2.74;100.00
11038;BME280;5572;49.540;11.932;2023-02-28T10:38:51;98600.16;;;2.31;100.00
11038;BME280;5572;49.540;11.932;2023-02-28T10:41:28;98610.50;;;2.54;100.00
11038;BME280;5572;49.540;11.932;2023-02-28T10:44:13;98605.97;;;3.18;100.00
11038;BME280;5572;49.540;11.932;2023-02-28T10:46:41;98633.91;;;2.94;100.00
11038;BME280;5572;49.540;11.932;2023-02-28T10:49:14;98639.63;;;2.70;100.00
11038;BME280;5572;49.540;11.932;2023-02-28T10:51:41;98652.63;;;2.59;100.00
11038;BME280;5572;49.540;11.932;2023-02-28T10:54:18;98658.13;;;3.62;100.00
11038;BME280;5572;49.540;11.932;2023-02-28T10:56:45;98689.72;;;3.10;100.00
11038;BME280;5572;49.540;11.932;2023-02-28T10:59:27;98646.50;;;3.48;100.00
11038;BME280;5572;49.540;11.932;2023-02-28T11:01:54;98690.31;;;3.27;100.00
11038;BME280;5572;49.540;11.932;2023-02-28T11:04:33;98719.19;;;3.17;100.00
11038;BME280;5572;49.540;11.932;2023-02-28T11:07:03;98701.78;;;3.21;100.00
11038;BME280;5572;49.540;11.932;2023-02-28T11:09:33;98731.25;;;2.56;100.00
11038;BME280;5572;49.540;11.932;2023-02-28T11:12:05;98751.78;;;2.42;100.00
11038;BME280;5572;49.540;11.932;2023-02-28T11:14:36;98784.28;;;3.72;100.00
11038;BME280;5572;49.540;11.932;2023-02-28T11:17:14;98751.06;;;2.97;100.00
11038;BME280;5572;49.540;11.932;2023-02-28T11:19:46;98756.19;;;2.99;100.00
11038;BME280;5572;49.540;11.932;2023-02-28T11:22:17;98776.31;;;2.66;100.00
11038;BME280;5572;49.540;11.932;2023-02-28T11:24:48;98808.00;;;2.69;100.00
11038;BME280;5572;49.540;11.932;2023-02-28T11:27:40;98753.13;;;3.85;100.00
11038;BME280;5572;49.540;11.932;2023-02-28T11:30:24;98760.06;;;3.52;100.00
11038;BME280;5572;49.540;11.932;2023-02-28T11:32:51;98848.38;;;2.95;100.00
11038;BME280;5572;49.540;11.932;2023-02-28T11:35:22;98802.63;;;2.83;100.00
11038;BME280;5572;49.540;11.932;2023-02-28T11:37:50;98829.13;;;3.49;100.00
11038;BME280;5572;49.540;11.932;2023-02-28T11:40:24;98818.81;;;3.46;100.00
11038;BME280;5572;49.540;11.932;2023-02-28T11:43:04;98857.03;;;2.97;100.00
11038;BME280;5572;49.540;11.932;2023-02-28T11:45:45;98870.28;;;3.54;100.00
11038;BME280;5572;49.540;11.932;2023-02-28T11:48:20;98835.63;;;3.26;100.00
11038;BME280;5572;49.540;11.932;2023-02-28T11:50:59;98820.97;;;3.78;100.00
11038;BME280;5572;49.540;11.932;2023-02-28T11:53:47;98827.72;;;3.95;100.00
11038;BME280;5572;49.540;11.932;2023-02-28T11:56:24;98840.22;;;3.32;100.00
11038;BME280;5572;49.540;11.932;2023-02-28T11:58:58;98851.00;;;2.74;100.00
11038;BME280;5572;49.540;11.932;2023-02-28T12:01:40;98922.97;;;3.39;100.00
11038;BME280;5572;49.540;11.932;2023-02-28T12:04:17;98869.94;;;2.79;100.00
11038;BME280;5572;49.540;11.932;2023-02-28T12:06:54;98846.06;;;3.77;100.00
11038;BME280;5572;49.540;11.932;2023-02-28T12:09:45;98875.81;;;3.53;100.00
11038;BME280;5572;49.540;11.932;2023-02-28T12:12:23;98868.66;;;3.04;100.00
11038;BME280;5572;49.540;11.932;2023-02-28T12:15:05;98882.06;;;3.39;100.00
11038;BME280;5572;49.540;11.932;2023-02-28T12:17:53;98847.00;;;4.11;100.00
11038;BME280;5572;49.540;11.932;2023-02-28T12:20:44;98859.88;;;3.80;100.00
11038;BME280;5572;49.540;11.932;2023-02-28T12:23:27;98890.72;;;3.27;100.00
11038;BME280;5572;49.540;11.932;2023-02-28T12:26:07;98850.63;;;3.83;100.00
11038;BME280;5572;49.540;11.932;2023-02-28T12:28:42;98909.53;;;3.68;100.00
11038;BME280;5572;49.540;11.932;2023-02-28T12:31:14;98853.13;;;4.32;100.00
11038;BME280;5572;49.540;11.932;2023-02-28T12:33:46;98888.09;;;3.83;100.00
11038;BME280;5572;49.540;11.932;2023-02-28T12:36:16;98848.84;;;4.38;100.00
11038;BME280;5572;49.540;11.932;2023-02-28T12:38:47;98867.53;;;4.04;100.00
11038;BME280;5572;49.540;11.932;2023-02-28T12:41:17;98883.25;;;3.93;100.00
11038;BME280;5572;49.540;11.932;2023-02-28T12:43:50;98904.75;;;3.64;100.00
11038;BME280;5572;49.540;11.932;2023-02-28T12:46:24;98867.56;;;4.11;100.00
11038;BME280;5572;49.540;11.932;2023-02-28T12:48:53;98944.53;;;3.38;100.00
11038;BME280;5572;49.540;11.932;2023-02-28T12:51:23;98942.97;;;3.00;100.00
11038;BME280;5572;49.540;11.932;2023-02-28T12:53:57;98893.94;;;3.93;100.00
11038;BME280;5572;49.540;11.932;2023-02-28T12:56:34;98894.84;;;4.48;100.00
11038;BME280;5572;49.540;11.932;2023-02-28T12:59:13;98886.69;;;4.08;100.00
11038;BME280;5572;49.540;11.932;2023-02-28T13:02:02;98891.69;;;3.75;100.00
11038;BME280;5572;49.540;11.932;2023-02-28T13:07:49;98911.03;;;3.56;100.00
11038;BME280;5572;49.540;11.932;2023-02-28T13:10:22;98915.31;;;3.72;100.00
11038;BME280;5572;49.540;11.932;2023-02-28T13:12:50;98936.00;;;3.63;100.00
11038;BME280;5572;49.540;11.932;2023-02-28T13:15:22;98949.88;;;3.38;100.00